createdAt,value
2017-12-13T00:00:16.669Z,76.60
2017-12-13T00:02:42.789Z,77.20
2017-12-13T00:05:09.065Z,76.60
2017-12-13T00:07:35.169Z,76.10
2017-12-13T00:10:01.269Z,76.10
2017-12-13T00:12:28.120Z,76.30
2017-12-13T00:14:54.965Z,76.40
2017-12-13T00:17:21.068Z,76.30
2017-12-13T00:19:47.648Z,76.50
2017-12-13T00:22:13.762Z,76.40
2017-12-13T00:24:39.857Z,76.10
2017-12-13T00:27:05.956Z,75.90
2017-12-13T00:29:32.066Z,75.50
2017-12-13T00:31:58.213Z,75.20
2017-12-13T00:34:24.340Z,75.80
2017-12-13T00:36:51.400Z,76.10
2017-12-13T00:39:18.249Z,76.70
2017-12-13T00:41:45.204Z,76.40
2017-12-13T00:44:12.056Z,76.40
2017-12-13T00:46:38.163Z,76.40
2017-12-13T00:49:04.264Z,76.40
2017-12-13T00:51:30.385Z,76.00
2017-12-13T00:53:56.525Z,75.90
2017-12-13T00:56:22.637Z,76.30
2017-12-13T00:58:48.976Z,75.90
2017-12-13T01:01:15.294Z,75.70
2017-12-13T01:03:42.357Z,76.00
2017-12-13T01:06:08.556Z,76.10
2017-12-13T01:08:34.708Z,75.80
2017-12-13T01:11:00.816Z,75.50
2017-12-13T01:13:26.913Z,76.00
2017-12-13T01:15:53.031Z,75.80
2017-12-13T01:18:19.883Z,76.20
2017-12-13T01:20:45.984Z,75.50
2017-12-13T01:23:12.097Z,76.30
2017-12-13T01:25:38.404Z,75.40
2017-12-13T01:28:04.719Z,76.40
2017-12-13T01:30:31.028Z,75.50
2017-12-13T01:32:57.464Z,75.60
2017-12-13T01:35:24.564Z,75.40
2017-12-13T01:37:50.672Z,75.30
2017-12-13T01:40:17.520Z,75.90
2017-12-13T01:42:44.357Z,75.20
2017-12-13T01:45:10.475Z,75.20
2017-12-13T01:47:36.600Z,75.20
2017-12-13T01:50:02.713Z,75.10
2017-12-13T01:52:29.770Z,76.00
2017-12-13T01:54:55.912Z,76.00
2017-12-13T01:57:25.738Z,76.10
2017-12-13T01:59:51.856Z,76.10
2017-12-13T02:02:17.977Z,75.80
2017-12-13T02:04:44.078Z,75.00
2017-12-13T02:07:10.939Z,76.30
2017-12-13T02:09:37.134Z,76.20
2017-12-13T02:12:03.251Z,75.20
2017-12-13T02:14:30.228Z,75.30
2017-12-13T02:16:56.606Z,76.00
2017-12-13T02:19:22.993Z,75.80
2017-12-13T02:21:49.325Z,75.30
2017-12-13T02:24:16.400Z,77.30
2017-12-13T02:26:43.488Z,76.40
2017-12-13T02:29:09.794Z,76.40
2017-12-13T02:31:36.850Z,75.60
2017-12-13T02:34:06.006Z,75.60
2017-12-13T02:36:32.112Z,76.00
2017-12-13T02:38:58.944Z,75.60
2017-12-13T02:41:25.069Z,75.60
2017-12-13T02:43:52.603Z,75.50
2017-12-13T02:46:18.718Z,74.60
2017-12-13T02:48:44.824Z,74.60
2017-12-13T02:51:10.924Z,74.70
2017-12-13T02:53:37.076Z,74.10
2017-12-13T02:56:03.192Z,75.00
2017-12-13T02:58:29.426Z,76.00
2017-12-13T03:00:56.344Z,75.00
2017-12-13T03:03:23.204Z,74.20
2017-12-13T03:05:50.060Z,74.50
2017-12-13T03:08:16.901Z,73.90
2017-12-13T03:10:42.999Z,73.90
2017-12-13T03:13:09.205Z,74.40
2017-12-13T03:15:36.067Z,74.60
2017-12-13T03:18:02.932Z,73.90
2017-12-13T03:20:29.043Z,73.90
2017-12-13T03:22:55.171Z,74.00
2017-12-13T03:25:21.296Z,73.50
2017-12-13T03:27:47.482Z,73.30
2017-12-13T03:30:13.598Z,73.70
2017-12-13T03:32:40.470Z,74.00
2017-12-13T03:35:06.581Z,74.00
2017-12-13T03:37:32.659Z,72.90
2017-12-13T03:39:58.795Z,73.30
2017-12-13T03:42:24.925Z,73.10
2017-12-13T03:44:51.044Z,73.50
2017-12-13T03:47:17.153Z,74.00
2017-12-13T03:49:43.471Z,73.80
2017-12-13T03:52:09.828Z,73.30
2017-12-13T03:54:36.143Z,73.90
2017-12-13T03:57:02.450Z,73.80
2017-12-13T03:59:28.746Z,74.10
2017-12-13T04:01:55.064Z,73.70
2017-12-13T04:04:21.449Z,73.80
2017-12-13T04:06:47.595Z,73.70
2017-12-13T04:09:13.967Z,73.90
2017-12-13T04:11:40.105Z,74.10
2017-12-13T04:14:06.445Z,73.80
2017-12-13T04:16:32.804Z,73.90
2017-12-13T04:18:59.153Z,73.10
2017-12-13T04:21:25.482Z,74.50
2017-12-13T04:23:51.809Z,73.80
2017-12-13T04:26:18.166Z,73.50
2017-12-13T04:28:44.511Z,73.40
2017-12-13T04:31:10.848Z,73.80
2017-12-13T04:33:37.293Z,72.80
2017-12-13T04:36:03.649Z,73.70
2017-12-13T04:38:29.994Z,73.90
2017-12-13T04:40:56.371Z,73.80
2017-12-13T04:43:22.732Z,73.60
2017-12-13T04:45:49.054Z,72.90
2017-12-13T04:48:15.735Z,74.00
2017-12-13T04:50:42.060Z,73.40
2017-12-13T04:53:08.411Z,73.40
2017-12-13T04:55:34.728Z,73.50
2017-12-13T04:58:01.074Z,73.40
2017-12-13T05:00:33.240Z,74.00
2017-12-13T05:02:59.581Z,73.90
2017-12-13T05:05:25.891Z,73.70
2017-12-13T05:07:52.247Z,74.00
2017-12-13T05:10:18.613Z,74.00
2017-12-13T05:12:44.952Z,73.70
2017-12-13T05:15:11.312Z,74.00
2017-12-13T05:17:37.721Z,74.00
2017-12-13T05:20:04.075Z,73.50
2017-12-13T05:22:30.459Z,73.90
2017-12-13T05:24:56.793Z,74.20
2017-12-13T05:27:23.135Z,74.00
2017-12-13T05:29:49.484Z,74.10
2017-12-13T05:32:15.810Z,74.20
2017-12-13T05:34:42.126Z,73.90
2017-12-13T05:37:08.523Z,74.00
2017-12-13T05:39:34.861Z,74.80
2017-12-13T05:42:01.618Z,74.30
2017-12-13T05:44:27.959Z,74.30
2017-12-13T05:46:54.297Z,74.10
2017-12-13T05:49:20.500Z,75.20
2017-12-13T05:51:47.601Z,74.80
2017-12-13T05:54:13.746Z,74.80
2017-12-13T05:56:40.082Z,75.10
2017-12-13T05:59:06.201Z,75.10
2017-12-13T06:01:32.544Z,74.40
2017-12-13T06:03:58.862Z,74.60
2017-12-13T06:06:25.178Z,74.30
2017-12-13T06:08:51.564Z,75.00
2017-12-13T06:11:17.889Z,74.70
2017-12-13T06:13:44.238Z,74.80
2017-12-13T06:16:12.570Z,74.80
2017-12-13T06:18:39.693Z,74.50
2017-12-13T06:21:06.017Z,74.60
2017-12-13T06:23:32.332Z,74.40
2017-12-13T06:25:58.695Z,75.10
2017-12-13T06:28:25.026Z,76.00
2017-12-13T06:30:51.373Z,75.00
2017-12-13T06:33:18.441Z,75.10
2017-12-13T06:35:44.884Z,75.10
2017-12-13T06:38:11.197Z,74.60
2017-12-13T06:40:37.316Z,75.10
2017-12-13T06:43:03.640Z,74.60
2017-12-13T06:45:29.953Z,74.80
2017-12-13T06:47:56.060Z,75.20
2017-12-13T06:50:23.172Z,74.80
2017-12-13T06:52:49.460Z,74.70
2017-12-13T06:55:15.757Z,75.20
2017-12-13T06:57:42.062Z,75.00
2017-12-13T07:00:08.388Z,74.80
2017-12-13T07:02:35.442Z,75.40
2017-12-13T07:05:02.500Z,74.90
2017-12-13T07:07:29.467Z,74.50
2017-12-13T07:09:55.663Z,74.50
2017-12-13T07:12:21.925Z,74.70
2017-12-13T07:14:48.079Z,74.90
2017-12-13T07:17:15.021Z,74.70
2017-12-13T07:19:41.896Z,75.30
2017-12-13T07:22:08.752Z,75.50
2017-12-13T07:24:38.009Z,75.20
2017-12-13T07:27:04.164Z,75.20
2017-12-13T07:29:31.051Z,74.80
2017-12-13T07:31:57.209Z,74.80
2017-12-13T07:34:23.340Z,74.80
2017-12-13T07:36:49.464Z,74.90
2017-12-13T07:39:15.584Z,74.80
2017-12-13T07:41:42.467Z,74.40
2017-12-13T07:44:08.600Z,74.40
2017-12-13T07:46:34.945Z,74.60
2017-12-13T07:49:01.845Z,74.30
2017-12-13T07:51:29.125Z,74.10
2017-12-13T07:53:56.205Z,73.70
2017-12-13T07:56:22.581Z,73.60
2017-12-13T07:58:48.897Z,74.10
2017-12-13T08:01:15.270Z,74.30
2017-12-13T08:03:41.594Z,73.70
2017-12-13T08:06:07.956Z,75.00
2017-12-13T08:08:34.306Z,73.80
2017-12-13T08:11:00.625Z,74.20
2017-12-13T08:13:26.982Z,74.20
2017-12-13T08:15:53.473Z,73.40
2017-12-13T08:18:19.813Z,74.30
2017-12-13T08:20:46.550Z,74.40
2017-12-13T08:23:12.861Z,73.30
2017-12-13T08:25:39.225Z,74.00
2017-12-13T08:28:05.555Z,73.70
2017-12-13T08:30:34.343Z,74.50
2017-12-13T08:33:01.188Z,73.60
2017-12-13T08:35:27.305Z,73.50
2017-12-13T08:37:53.421Z,73.60
2017-12-13T08:40:19.557Z,73.40
2017-12-13T08:42:45.692Z,74.00
2017-12-13T08:45:11.805Z,74.10
2017-12-13T08:47:38.257Z,73.30
2017-12-13T08:50:04.582Z,74.30
2017-12-13T08:52:30.879Z,73.60
2017-12-13T08:54:57.213Z,73.40
2017-12-13T08:57:23.559Z,73.90
2017-12-13T08:59:49.878Z,73.30
2017-12-13T09:02:16.233Z,73.10
2017-12-13T09:04:43.302Z,73.10
2017-12-13T09:09:41.484Z,72.20
2017-12-13T09:12:07.600Z,72.30
2017-12-13T09:14:33.703Z,72.90
2017-12-13T09:16:59.817Z,72.80
2017-12-13T09:19:25.946Z,73.30
2017-12-13T09:21:52.135Z,73.60
2017-12-13T09:24:24.476Z,73.60
2017-12-13T09:26:51.425Z,74.30
2017-12-13T09:29:17.600Z,74.20
2017-12-13T09:31:43.745Z,74.90
2017-12-13T09:34:09.974Z,74.60
2017-12-13T09:36:36.149Z,75.50
2017-12-13T09:39:02.333Z,75.30
2017-12-13T09:41:28.481Z,75.50
2017-12-13T09:43:57.148Z,75.00
2017-12-13T09:46:24.245Z,76.10
2017-12-13T09:48:50.621Z,76.10
2017-12-13T09:51:16.806Z,76.70
2017-12-13T09:53:43.188Z,76.20
2017-12-13T09:56:09.529Z,76.30
2017-12-13T09:58:36.700Z,76.70
2017-12-13T10:01:03.773Z,77.20
2017-12-13T10:03:33.309Z,77.20
2017-12-13T10:05:59.685Z,77.80
2017-12-13T10:08:26.779Z,76.90
2017-12-13T10:10:52.931Z,76.90
2017-12-13T10:13:19.293Z,78.20
2017-12-13T10:15:45.629Z,79.50
2017-12-13T10:18:11.938Z,78.40
2017-12-13T10:20:38.306Z,78.70
2017-12-13T10:23:07.941Z,79.80
2017-12-13T10:25:34.278Z,79.50
2017-12-13T10:28:00.630Z,80.00
2017-12-13T10:30:27.689Z,80.10
2017-12-13T10:32:53.842Z,80.30
2017-12-13T10:35:20.187Z,79.30
2017-12-13T10:37:46.516Z,80.10
2017-12-13T10:40:16.588Z,80.10
2017-12-13T10:42:42.917Z,80.00
2017-12-13T10:45:09.289Z,80.50
2017-12-13T10:47:35.680Z,80.20
2017-12-13T10:50:02.003Z,80.60
2017-12-13T10:52:28.349Z,81.50
2017-12-13T10:54:55.452Z,81.60
2017-12-13T10:57:22.440Z,81.50
2017-12-13T10:59:52.260Z,81.40
2017-12-13T11:02:18.594Z,81.30
2017-12-13T11:04:44.928Z,81.90
2017-12-13T11:07:11.306Z,81.00
2017-12-13T11:09:37.752Z,81.60
2017-12-13T11:12:04.103Z,80.70
2017-12-13T11:14:30.511Z,80.90
2017-12-13T11:17:00.524Z,80.20
2017-12-13T11:19:27.606Z,81.00
2017-12-13T11:21:54.021Z,81.20
2017-12-13T11:24:20.390Z,80.70
2017-12-13T11:26:46.720Z,80.60
2017-12-13T11:29:13.032Z,80.30
2017-12-13T11:34:11.456Z,80.20
2017-12-13T11:36:37.820Z,80.30
2017-12-13T11:39:04.184Z,80.20
2017-12-13T11:41:30.520Z,81.00
2017-12-13T11:43:56.830Z,81.00
2017-12-13T11:46:23.140Z,81.10
2017-12-13T11:48:49.474Z,81.00
2017-12-13T11:51:22.699Z,80.90
2017-12-13T11:53:49.016Z,81.10
2017-12-13T11:56:15.372Z,81.80
2017-12-13T11:58:41.912Z,82.10
2017-12-13T12:01:08.288Z,83.00
2017-12-13T12:03:34.384Z,82.60
2017-12-13T12:06:00.684Z,82.40
2017-12-13T12:08:30.724Z,82.20
2017-12-13T12:10:57.177Z,82.10
2017-12-13T12:13:23.507Z,82.20
2017-12-13T12:15:50.545Z,82.10
2017-12-13T12:18:16.662Z,82.10
2017-12-13T12:20:42.970Z,81.90
2017-12-13T12:23:09.318Z,82.60
2017-12-13T12:25:40.807Z,82.20
2017-12-13T12:28:07.141Z,82.10
2017-12-13T12:30:34.222Z,82.30
2017-12-13T12:33:01.277Z,81.90
2017-12-13T12:35:28.361Z,82.10
2017-12-13T12:37:55.226Z,82.30
2017-12-13T12:40:21.353Z,82.30
2017-12-13T12:42:50.480Z,82.10
2017-12-13T12:45:16.806Z,82.80
2017-12-13T12:47:43.133Z,82.80
2017-12-13T12:50:09.449Z,83.10
2017-12-13T12:52:35.778Z,83.10
2017-12-13T12:55:02.117Z,82.80
2017-12-13T12:57:28.465Z,83.00
2017-12-13T12:59:54.727Z,82.80
2017-12-13T13:02:27.344Z,82.50
2017-12-13T13:04:53.677Z,82.40
2017-12-13T13:07:20.118Z,82.40
2017-12-13T13:09:46.448Z,82.90
2017-12-13T13:12:12.796Z,82.30
2017-12-13T13:14:39.870Z,83.30
2017-12-13T13:17:05.990Z,83.30
2017-12-13T13:19:35.537Z,83.30
2017-12-13T13:22:01.870Z,82.90
2017-12-13T13:24:28.240Z,82.60
2017-12-13T13:26:54.612Z,82.60
2017-12-13T13:29:20.933Z,82.60
2017-12-13T13:31:47.317Z,82.20
2017-12-13T13:34:13.671Z,82.80
2017-12-13T13:36:40.756Z,82.90
2017-12-13T13:39:10.336Z,82.90
2017-12-13T13:41:36.677Z,82.50
2017-12-13T13:44:03.012Z,82.50
2017-12-13T13:46:29.334Z,82.30
2017-12-13T13:48:55.666Z,82.80
2017-12-13T13:51:21.991Z,83.00
2017-12-13T13:53:48.327Z,82.20
2017-12-13T13:56:14.638Z,83.30
2017-12-13T13:58:46.085Z,82.90
2017-12-13T14:01:12.436Z,82.50
2017-12-13T14:03:39.798Z,82.10
2017-12-13T14:06:05.955Z,82.00
2017-12-13T14:08:32.294Z,82.00
2017-12-13T14:10:58.412Z,82.50
2017-12-13T14:13:24.736Z,82.70
2017-12-13T14:15:55.664Z,82.50
2017-12-13T14:18:21.956Z,82.80
2017-12-13T14:20:48.276Z,83.10
2017-12-13T14:23:14.673Z,82.40
2017-12-13T14:25:41.035Z,82.30
2017-12-13T14:28:07.372Z,82.70
2017-12-13T14:30:33.712Z,82.90
2017-12-13T14:33:00.064Z,82.20
2017-12-13T14:35:30.709Z,82.90
2017-12-13T14:37:57.768Z,83.10
2017-12-13T14:40:24.180Z,83.10
2017-12-13T14:42:50.580Z,83.40
2017-12-13T14:45:16.786Z,83.10
2017-12-13T14:47:43.129Z,82.90
2017-12-13T14:50:09.560Z,82.00
2017-12-13T14:52:40.238Z,82.80
2017-12-13T14:55:07.323Z,82.70
2017-12-13T14:57:33.665Z,82.40
2017-12-13T15:00:00.725Z,83.20
2017-12-13T15:02:27.137Z,83.10
2017-12-13T15:04:53.515Z,83.20
2017-12-13T15:07:19.843Z,82.90
2017-12-13T15:09:46.205Z,83.30
2017-12-13T15:12:12.473Z,83.30
2017-12-13T15:14:38.813Z,83.50
2017-12-13T15:17:05.144Z,83.00
2017-12-13T15:19:32.233Z,82.60
2017-12-13T15:21:58.592Z,82.60
2017-12-13T15:24:24.952Z,83.20
2017-12-13T15:26:51.312Z,83.90
2017-12-13T15:29:17.612Z,83.00
2017-12-13T15:31:44.706Z,82.50
2017-12-13T15:34:11.084Z,82.50
2017-12-13T15:36:37.424Z,83.10
2017-12-13T15:39:03.920Z,83.40
2017-12-13T15:41:31.013Z,83.70
2017-12-13T15:43:57.171Z,83.70
2017-12-13T15:46:27.648Z,83.90
2017-12-13T15:48:54.581Z,83.50
2017-12-13T15:51:20.802Z,83.40
2017-12-13T15:53:47.989Z,83.40
2017-12-13T15:56:14.209Z,83.40
2017-12-13T15:58:41.077Z,83.30
2017-12-13T16:01:08.999Z,83.40
2017-12-13T16:03:35.121Z,83.90
2017-12-13T16:06:01.601Z,83.90
2017-12-13T16:08:28.066Z,84.00
2017-12-13T16:10:54.401Z,83.50
2017-12-13T16:13:20.810Z,83.80
2017-12-13T16:15:48.953Z,83.50
2017-12-13T16:18:16.048Z,83.50
2017-12-13T16:20:42.921Z,83.80
2017-12-13T16:23:09.056Z,83.80
2017-12-13T16:25:36.001Z,84.10
2017-12-13T16:28:02.196Z,84.00
2017-12-13T16:30:28.393Z,83.40
2017-12-13T16:32:55.333Z,83.60
2017-12-13T16:35:21.477Z,83.60
2017-12-13T16:37:47.621Z,83.90
2017-12-13T16:40:13.901Z,84.00
2017-12-13T16:42:41.001Z,83.80
2017-12-13T16:45:07.421Z,83.80
2017-12-13T16:47:33.826Z,84.00
2017-12-13T16:50:00.257Z,84.40
2017-12-13T16:52:26.836Z,84.60
2017-12-13T16:54:52.995Z,84.10
2017-12-13T16:57:19.365Z,83.20
2017-12-13T16:59:45.503Z,83.90
2017-12-13T17:02:11.908Z,84.20
2017-12-13T17:04:38.246Z,83.90
2017-12-13T17:07:04.652Z,83.70
2017-12-13T17:09:31.726Z,84.10
2017-12-13T17:11:58.783Z,83.60
2017-12-13T17:14:25.850Z,84.30
2017-12-13T17:16:53.086Z,84.10
2017-12-13T17:19:23.611Z,84.10
2017-12-13T17:21:50.548Z,83.40
2017-12-13T17:24:16.649Z,83.30
2017-12-13T17:26:42.774Z,83.50
2017-12-13T17:29:08.885Z,83.50
2017-12-13T17:31:35.215Z,83.10
2017-12-13T17:34:01.381Z,83.00
2017-12-13T17:36:27.494Z,83.00
2017-12-13T17:38:53.606Z,83.80
2017-12-13T17:41:20.476Z,83.20
2017-12-13T17:43:46.600Z,83.10
2017-12-13T17:46:12.824Z,82.50
2017-12-13T17:48:42.445Z,82.70
2017-12-13T17:51:08.635Z,83.40
2017-12-13T17:53:34.755Z,83.20
2017-12-13T17:56:00.870Z,83.00
2017-12-13T17:58:26.984Z,82.00
2017-12-13T18:00:53.176Z,82.10
2017-12-13T18:03:19.268Z,83.30
2017-12-13T18:05:46.148Z,82.70
2017-12-13T18:08:12.264Z,82.70
2017-12-13T18:10:39.121Z,83.30
2017-12-13T18:13:06.171Z,83.00
2017-12-13T18:15:33.076Z,83.60
2017-12-13T18:17:59.234Z,83.50
2017-12-13T18:20:25.456Z,83.80
2017-12-13T18:22:51.584Z,83.90
2017-12-13T18:25:18.733Z,84.50
2017-12-13T18:27:45.715Z,84.30
2017-12-13T18:30:11.983Z,84.30
2017-12-13T18:32:38.128Z,84.10
2017-12-13T18:35:12.546Z,84.60
2017-12-13T18:37:43.056Z,84.30
2017-12-13T18:40:10.997Z,84.30
2017-12-13T18:42:37.199Z,83.70
2017-12-13T18:45:04.097Z,83.20
2017-12-13T18:47:30.252Z,83.20
2017-12-13T18:49:56.408Z,83.20
2017-12-13T18:52:22.673Z,83.00
2017-12-13T18:54:49.827Z,82.60
2017-12-13T18:57:20.630Z,82.60
2017-12-13T18:59:46.784Z,82.70
2017-12-13T19:02:13.097Z,83.30
2017-12-13T19:04:39.371Z,83.70
2017-12-13T19:07:05.492Z,83.90
2017-12-13T19:09:31.667Z,83.80
2017-12-13T19:11:57.884Z,84.00
2017-12-13T19:14:24.119Z,84.40
2017-12-13T19:16:51.029Z,84.50
2017-12-13T19:19:17.987Z,84.40
2017-12-13T19:21:44.131Z,84.20
2017-12-13T19:24:10.330Z,84.90
2017-12-13T19:26:36.522Z,85.00
2017-12-13T19:29:02.653Z,85.30
2017-12-13T19:31:29.536Z,85.10
2017-12-13T19:33:56.421Z,85.20
2017-12-13T19:36:22.550Z,85.10
2017-12-13T19:38:48.689Z,85.00
2017-12-13T19:41:14.929Z,85.80
2017-12-13T19:43:41.833Z,85.40
2017-12-13T19:46:07.939Z,85.40
2017-12-13T19:48:34.056Z,86.00
2017-12-13T19:51:00.184Z,85.80
2017-12-13T19:53:26.365Z,86.30
2017-12-13T19:55:52.653Z,86.40
2017-12-13T19:58:18.768Z,86.60
2017-12-13T20:00:45.228Z,86.40
2017-12-13T20:03:12.080Z,86.20
2017-12-13T20:05:38.259Z,86.10
2017-12-13T20:08:04.364Z,86.40
2017-12-13T20:10:30.484Z,86.20
2017-12-13T20:12:56.652Z,86.40
2017-12-13T20:15:22.811Z,87.10
2017-12-13T20:17:48.924Z,87.30
2017-12-13T20:20:15.029Z,87.20
2017-12-13T20:22:42.075Z,87.60
2017-12-13T20:25:08.607Z,87.60
2017-12-13T20:27:34.844Z,86.90
2017-12-13T20:30:00.992Z,86.80
2017-12-13T20:32:27.170Z,86.30
2017-12-13T20:34:54.041Z,86.30
2017-12-13T20:37:21.160Z,86.00
2017-12-13T20:39:47.338Z,86.10
2017-12-13T20:42:13.630Z,86.50
2017-12-13T20:44:39.907Z,86.90
2017-12-13T20:47:06.029Z,86.70
2017-12-13T20:49:32.277Z,87.00
2017-12-13T20:51:58.531Z,86.70
2017-12-13T20:54:24.740Z,86.90
2017-12-13T20:56:50.894Z,87.10
2017-12-13T20:59:17.816Z,87.50
2017-12-13T21:01:44.806Z,87.40
2017-12-13T21:04:11.061Z,87.40
2017-12-13T21:06:37.213Z,87.10
2017-12-13T21:09:03.809Z,87.10
2017-12-13T21:11:30.703Z,87.00
2017-12-13T21:13:57.651Z,87.30
2017-12-13T21:16:24.628Z,87.40
2017-12-13T21:18:50.772Z,87.30
2017-12-13T21:21:16.918Z,87.00
2017-12-13T21:23:43.072Z,86.60
2017-12-13T21:26:09.197Z,86.70
2017-12-13T21:28:35.300Z,86.70
2017-12-13T21:31:02.137Z,86.30
2017-12-13T21:33:28.245Z,86.10
2017-12-13T21:35:54.375Z,86.10
2017-12-13T21:38:20.696Z,86.70
2017-12-13T21:40:47.753Z,86.60
2017-12-13T21:43:14.809Z,87.00
2017-12-13T21:45:41.493Z,86.80
2017-12-13T21:48:07.937Z,87.20
2017-12-13T21:50:34.260Z,86.70
2017-12-13T21:53:00.639Z,86.60
2017-12-13T21:55:27.679Z,86.10
2017-12-13T21:57:58.779Z,86.10
2017-12-13T22:00:24.882Z,86.00
2017-12-13T22:02:51.724Z,86.00
2017-12-13T22:05:17.828Z,86.00
2017-12-13T22:07:43.932Z,85.70
2017-12-13T22:10:10.831Z,86.10
2017-12-13T22:12:37.952Z,86.10
2017-12-13T22:15:05.225Z,86.10
2017-12-13T22:17:32.076Z,86.00
2017-12-13T22:19:58.939Z,85.60
2017-12-13T22:22:25.785Z,85.40
2017-12-13T22:24:51.943Z,85.40
2017-12-13T22:27:18.054Z,85.40
2017-12-13T22:29:44.215Z,85.30
2017-12-13T22:32:10.314Z,85.50
2017-12-13T22:34:36.452Z,85.20
2017-12-13T22:37:02.634Z,85.30
2017-12-13T22:39:28.838Z,85.50
2017-12-13T22:41:54.954Z,84.50
2017-12-13T22:44:21.087Z,84.60
2017-12-13T22:46:48.016Z,85.10
2017-12-13T22:49:14.224Z,84.90
2017-12-13T22:51:41.513Z,85.00
2017-12-13T22:54:07.643Z,84.80
2017-12-13T22:56:33.768Z,84.30
2017-12-13T22:59:02.892Z,84.10
2017-12-13T23:01:29.423Z,84.50
